Time;durP1;ratioP1;P1;durP2;ratioP2;P2;SDS_P1;SDS_P2;PMS_P1;PMS_P2;Temp;Humidity;BMP_temperature;BMP_pressure;BME280_temperature;BME280_humidity;BME280_pressure;Samples;Min_cycle;Max_cycle;Signal;HPM_P1;HPM_P2
2023/05/19 00:01:13;;;;;;;;;6.00;6.00;;;;;8.55;58.09;100852.09;5116972;28;9482;-59
2023/05/19 00:03:41;;;;;;;;;9.40;9.40;;;;;8.51;57.97;100853.19;5117227;28;8820;-59
2023/05/19 00:06:09;;;;;;;;;6.00;6.00;;;;;8.46;58.68;100847.31;5117048;28;8828;-57
2023/05/19 00:08:37;;;;;;;;;9.00;7.80;;;;;8.42;58.37;100844.88;5117885;28;8836;-58
2023/05/19 00:11:05;;;;;;;;;5.20;5.20;;;;;8.35;58.49;100843.53;5117172;28;8816;-59
2023/05/19 00:13:33;;;;;;;;;6.00;6.00;;;;;8.27;58.50;100849.25;5117401;28;8854;-57
2023/05/19 00:16:01;;;;;;;;;5.20;5.20;;;;;8.20;58.64;100845.25;5117545;28;9562;-59
2023/05/19 00:18:29;;;;;;;;;4.20;3.60;;;;;8.16;58.83;100842.81;5117142;28;8875;-57
2023/05/19 00:20:57;;;;;;;;;8.60;7.80;;;;;8.12;59.33;100843.91;5117455;28;8963;-59
2023/05/19 00:23:25;;;;;;;;;5.20;4.40;;;;;8.03;59.30;100842.63;5117226;28;8820;-60
2023/05/19 00:25:52;;;;;;;;;3.00;3.00;;;;;7.99;59.14;100838.41;5116926;28;8966;-59
2023/05/19 00:28:20;;;;;;;;;7.00;7.00;;;;;7.95;59.25;100834.25;5117265;28;8839;-59
2023/05/19 00:30:48;;;;;;;;;8.20;7.00;;;;;7.92;59.19;100845.00;5117043;28;8862;-59
2023/05/19 00:33:15;;;;;;;;;8.20;7.80;;;;;7.90;59.58;100838.94;5116800;28;8832;-57
2023/05/19 00:35:44;;;;;;;;;9.60;9.40;;;;;7.88;59.73;100843.47;5117430;28;8840;-59
2023/05/19 00:38:11;;;;;;;;;11.20;9.00;;;;;7.89;59.28;100845.19;5116847;28;8850;-59
2023/05/19 00:40:39;;;;;;;;;13.20;10.00;;;;;7.89;59.37;100841.66;5117227;28;9525;-59
2023/05/19 00:43:07;;;;;;;;;14.00;13.80;;;;;7.88;59.30;100837.28;5117203;28;9529;-60
2023/05/19 00:45:34;;;;;;;;;13.60;12.60;;;;;7.86;59.05;100837.41;5116826;28;8832;-59
2023/05/19 00:48:02;;;;;;;;;10.80;10.40;;;;;7.85;59.46;100837.47;5117034;28;8961;-60
2023/05/19 00:50:30;;;;;;;;;5.60;5.60;;;;;7.83;59.61;100842.84;5117213;28;8844;-59
2023/05/19 00:52:58;;;;;;;;;14.00;12.20;;;;;7.81;59.40;100835.91;5116696;28;8852;-59
2023/05/19 00:55:26;;;;;;;;;12.40;11.60;;;;;7.79;59.59;100838.66;5116820;28;8842;-59
2023/05/19 00:57:54;;;;;;;;;9.40;9.00;;;;;7.79;59.60;100841.31;5116538;28;8834;-59
2023/05/19 01:00:22;;;;;;;;;9.60;9.60;;;;;7.77;59.92;100834.38;5116753;28;8844;-59
2023/05/19 01:02:50;;;;;;;;;10.40;10.00;;;;;7.73;59.58;100836.34;5115817;28;8997;-57
2023/05/19 01:05:18;;;;;;;;;10.00;9.20;;;;;7.70;59.30;100833.84;5116947;28;8887;-59
2023/05/19 01:07:46;;;;;;;;;9.60;9.40;;;;;7.67;59.80;100835.84;5116538;28;8850;-59
2023/05/19 01:10:13;;;;;;;;;7.80;7.80;;;;;7.61;59.67;100837.94;5116538;28;8843;-57
2023/05/19 01:12:41;;;;;;;;;3.80;3.60;;;;;7.58;60.36;100832.81;5116626;28;8838;-58
2023/05/19 01:15:09;;;;;;;;;7.40;7.40;;;;;7.53;59.97;100838.34;5116360;28;8851;-59
2023/05/19 01:17:37;;;;;;;;;11.20;9.40;;;;;7.49;60.32;100834.13;5116532;28;8840;-58
2023/05/19 01:20:05;;;;;;;;;8.60;8.60;;;;;7.46;60.33;100834.31;5116398;28;8820;-59
2023/05/19 01:22:33;;;;;;;;;11.80;11.00;;;;;7.43;60.00;100837.09;5116412;28;8843;-58
2023/05/19 01:25:01;;;;;;;;;8.20;8.20;;;;;7.40;60.07;100833.75;5116057;28;8824;-57
2023/05/19 01:27:28;;;;;;;;;7.80;7.40;;;;;7.36;60.69;100843.66;5116207;28;8820;-59
2023/05/19 01:29:56;;;;;;;;;8.40;8.00;;;;;7.32;60.39;100841.25;5114364;28;8832;-56
2023/05/19 01:32:24;;;;;;;;;6.60;4.80;;;;;7.27;60.60;100830.06;5114863;28;8832;-57
2023/05/19 01:34:51;;;;;;;;;4.80;4.40;;;;;7.23;60.84;100831.13;5115516;28;8856;-58
2023/05/19 01:37:19;;;;;;;;;7.40;6.80;;;;;7.19;60.29;100832.25;5115629;28;9013;-58
2023/05/19 01:39:47;;;;;;;;;9.60;8.20;;;;;7.16;60.72;100821.78;5115165;28;8828;-58
2023/05/19 01:42:15;;;;;;;;;10.00;7.80;;;;;7.14;60.68;100831.63;5115538;28;8846;-56
2023/05/19 01:44:43;;;;;;;;;9.00;9.00;;;;;7.15;60.65;100828.03;5116228;28;8832;-58
2023/05/19 01:47:10;;;;;;;;;8.20;7.40;;;;;7.14;60.58;100823.69;5115934;28;8827;-58
2023/05/19 01:49:38;;;;;;;;;9.80;9.80;;;;;7.14;60.52;100826.31;5116305;28;8858;-58
2023/05/19 01:52:06;;;;;;;;;7.20;6.80;;;;;7.13;60.53;100825.44;5116077;28;8942;-58
2023/05/19 01:54:33;;;;;;;;;12.00;9.40;;;;;7.11;60.42;100823.81;5116279;28;8964;-56
2023/05/19 01:57:01;;;;;;;;;7.80;7.80;;;;;7.08;60.93;100824.84;5116231;28;8888;-58
2023/05/19 01:59:29;;;;;;;;;6.60;6.00;;;;;7.06;60.91;100828.50;5115599;28;8832;-58
2023/05/19 02:01:58;;;;;;;;;9.00;7.80;;;;;7.03;60.66;100820.69;5116041;28;9493;-59
2023/05/19 02:04:26;;;;;;;;;7.00;6.80;;;;;7.02;61.11;100822.50;5115836;28;8866;-59
2023/05/19 02:06:53;;;;;;;;;7.00;7.00;;;;;6.98;61.35;100825.41;5115564;28;8848;-61
2023/05/19 02:09:21;;;;;;;;;9.20;9.00;;;;;6.97;61.40;100839.56;5115562;28;8842;-60
2023/05/19 02:11:49;;;;;;;;;8.60;8.60;;;;;6.93;60.91;100828.28;5115617;28;9543;-61
2023/05/19 02:14:17;;;;;;;;;12.60;12.40;;;;;6.91;61.23;100831.94;5115142;28;8820;-59
2023/05/19 02:16:44;;;;;;;;;13.00;12.40;;;;;6.87;61.04;100833.88;5115860;28;8828;-60
2023/05/19 02:19:12;;;;;;;;;11.60;10.00;;;;;6.82;61.44;100841.19;5115913;28;8824;-59
2023/05/19 02:21:40;;;;;;;;;14.60;13.40;;;;;6.78;60.86;100838.78;5115565;28;8860;-60
2023/05/19 02:24:08;;;;;;;;;13.40;13.40;;;;;6.75;61.65;100838.94;5115489;28;8835;-59
2023/05/19 02:26:36;;;;;;;;;15.00;12.80;;;;;6.74;61.49;100842.53;5115444;28;8824;-61
2023/05/19 02:29:04;;;;;;;;;12.40;10.80;;;;;6.73;61.29;100841.66;5116331;28;9590;-62
2023/05/19 02:31:31;;;;;;;;;17.00;14.80;;;;;6.72;61.61;100839.06;5115620;28;8958;-61
2023/05/19 02:33:59;;;;;;;;;12.40;12.40;;;;;6.72;61.04;100839.06;5115693;28;8828;-61
2023/05/19 02:36:27;;;;;;;;;16.40;13.80;;;;;6.71;61.49;100840.00;5115760;28;8820;-61
2023/05/19 02:38:55;;;;;;;;;20.60;16.80;;;;;6.71;61.14;100842.66;5115739;28;8938;-59
2023/05/19 02:41:23;;;;;;;;;18.20;15.60;;;;;6.69;61.34;100841.88;5115328;28;8816;-60
2023/05/19 02:43:51;;;;;;;;;18.80;17.20;;;;;6.68;61.87;100842.81;5119343;28;8864;-59
2023/05/19 02:46:19;;;;;;;;;21.00;18.20;;;;;6.67;61.23;100836.66;5118705;28;8847;-59
2023/05/19 02:48:46;;;;;;;;;21.00;17.20;;;;;6.68;61.74;100837.53;5118706;28;8830;-59
2023/05/19 02:51:14;;;;;;;;;16.40;15.60;;;;;6.68;61.24;100837.53;5118761;28;8831;-61
2023/05/19 02:53:42;;;;;;;;;15.00;13.00;;;;;6.70;61.19;100835.66;5118601;28;8846;-61
2023/05/19 02:56:10;;;;;;;;;13.80;12.00;;;;;6.68;61.31;100838.34;5118951;28;8844;-62
2023/05/19 02:58:38;;;;;;;;;10.40;9.80;;;;;6.66;61.90;100839.41;5118618;28;8966;-61
2023/05/19 03:01:05;;;;;;;;;14.20;13.40;;;;;6.61;61.54;100841.41;5118749;28;8966;-62
2023/05/19 03:03:33;;;;;;;;;15.00;12.60;;;;;6.55;61.49;100842.56;5118991;28;9607;-61
2023/05/19 03:06:01;;;;;;;;;9.20;7.00;;;;;6.50;61.69;100838.41;5118552;28;8831;-61
2023/05/19 03:08:29;;;;;;;;;11.60;9.60;;;;;6.45;62.16;100841.28;5118730;28;8832;-61
2023/05/19 03:10:57;;;;;;;;;12.60;12.40;;;;;6.40;62.07;100835.38;5118637;28;8820;-61
2023/05/19 03:13:24;;;;;;;;;13.40;11.60;;;;;6.38;61.90;100831.09;5118558;28;8835;-60
2023/05/19 03:15:55;;;;;;;;;14.60;14.40;;;;;6.36;62.20;100843.53;5118663;28;8950;-60
2023/05/19 03:18:23;;;;;;;;;11.60;10.40;;;;;6.32;61.84;100823.44;5118490;28;8831;-61
2023/05/19 03:20:52;;;;;;;;;9.60;9.40;;;;;6.30;62.24;100825.31;5118200;28;8836;-59
2023/05/19 03:23:20;;;;;;;;;10.00;10.00;;;;;6.26;62.62;100829.00;5118201;28;8855;-59
2023/05/19 03:25:48;;;;;;;;;10.40;10.00;;;;;6.22;62.50;100830.94;5118552;28;8970;-61
2023/05/19 03:28:16;;;;;;;;;12.00;12.00;;;;;6.20;62.71;100829.31;5118473;28;8840;-60
2023/05/19 03:30:44;;;;;;;;;11.60;10.00;;;;;6.17;62.32;100832.97;5118453;28;8843;-61
2023/05/19 03:33:11;;;;;;;;;6.80;6.20;;;;;6.15;62.61;100836.63;5118235;28;8950;-61
2023/05/19 03:35:39;;;;;;;;;10.80;10.80;;;;;6.13;62.18;100827.88;5118413;28;8856;-60
2023/05/19 03:38:07;;;;;;;;;13.00;12.20;;;;;6.10;62.23;100828.03;5118130;28;8816;-61
2023/05/19 03:40:35;;;;;;;;;15.40;14.20;;;;;6.07;62.22;100823.75;5118281;28;8832;-59
2023/05/19 03:43:03;;;;;;;;;11.00;9.80;;;;;6.05;62.41;100830.03;5117544;28;8950;-61
2023/05/19 03:45:30;;;;;;;;;12.80;12.00;;;;;6.05;62.52;100832.66;5117468;28;8954;-61
2023/05/19 03:47:58;;;;;;;;;13.40;12.20;;;;;6.04;62.29;100834.47;5117884;28;9477;-61
2023/05/19 03:50:27;;;;;;;;;18.00;16.00;;;;;6.05;62.69;100836.19;5117427;28;8854;-61
2023/05/19 03:52:57;;;;;;;;;14.20;14.20;;;;;6.06;62.49;100844.97;5117347;28;8934;-59
2023/05/19 03:55:24;;;;;;;;;19.00;17.40;;;;;6.09;62.45;100842.19;5117558;28;8820;-61
2023/05/19 03:57:52;;;;;;;;;11.40;11.20;;;;;6.13;62.46;100841.09;5117198;28;8840;-61
2023/05/19 04:00:20;;;;;;;;;24.20;22.80;;;;;6.16;62.30;100839.16;5117251;28;8840;-60
2023/05/19 04:02:47;;;;;;;;;22.40;21.00;;;;;6.21;62.26;100842.47;5117372;28;8847;-59
2023/05/19 04:05:16;;;;;;;;;26.40;24.40;;;;;6.24;62.56;100836.16;5117319;28;8840;-61
2023/05/19 04:07:45;;;;;;;;;20.20;17.60;;;;;6.29;62.22;100842.13;5116910;28;8951;-60
2023/05/19 04:10:13;;;;;;;;;22.40;19.60;;;;;6.33;62.09;100846.31;5117446;28;8839;-60
2023/05/19 04:12:40;;;;;;;;;24.20;21.40;;;;;6.39;61.99;100851.31;5117091;28;8858;-61
2023/05/19 04:15:10;;;;;;;;;17.60;16.40;;;;;6.45;61.52;100848.38;5117221;28;9563;-60
2023/05/19 04:17:38;;;;;;;;;17.60;15.00;;;;;6.49;61.70;100848.16;5117641;28;8815;-60
2023/05/19 04:20:06;;;;;;;;;20.20;19.00;;;;;6.54;61.44;100837.34;5117315;28;8839;-60
2023/05/19 04:22:33;;;;;;;;;22.20;20.20;;;;;6.60;61.26;100842.34;5117442;28;8958;-60
2023/05/19 04:25:02;;;;;;;;;13.80;11.80;;;;;6.65;61.74;100837.66;5117661;28;8831;-60
2023/05/19 04:27:30;;;;;;;;;21.00;20.20;;;;;6.69;61.45;100840.06;5117429;28;8842;-60
2023/05/19 04:29:58;;;;;;;;;18.20;17.20;;;;;6.75;61.08;100845.06;5117291;28;8827;-59
2023/05/19 04:32:28;;;;;;;;;13.60;12.80;;;;;6.79;61.38;100841.34;5116960;28;8831;-60
2023/05/19 04:34:57;;;;;;;;;17.60;16.00;;;;;6.84;61.09;100841.13;5117237;28;8832;-59
2023/05/19 04:37:25;;;;;;;;;15.80;13.80;;;;;6.89;60.94;100833.81;5117128;28;8996;-61
2023/05/19 04:39:53;;;;;;;;;10.40;9.20;;;;;6.94;61.12;100839.72;5116909;28;8835;-62
2023/05/19 04:42:21;;;;;;;;;12.20;12.00;;;;;7.02;61.16;100830.47;5117209;28;8839;-61
2023/05/19 04:44:50;;;;;;;;;9.60;9.60;;;;;7.11;61.10;100829.09;5117783;28;9485;-62
2023/05/19 04:47:20;;;;;;;;;11.60;10.40;;;;;7.22;60.88;100829.44;5116928;28;8824;-62
2023/05/19 04:49:48;;;;;;;;;12.60;11.40;;;;;7.32;60.68;100831.53;5116860;28;8840;-62
2023/05/19 04:52:20;;;;;;;;;7.80;7.80;;;;;7.47;60.23;100830.72;5117205;28;9758;-60
2023/05/19 04:54:48;;;;;;;;;7.20;7.00;;;;;7.64;60.05;100838.63;5116926;28;8831;-62
2023/05/19 04:57:16;;;;;;;;;9.60;9.00;;;;;7.76;59.88;100836.16;5116876;28;8838;-62
2023/05/19 04:59:45;;;;;;;;;4.00;4.00;;;;;7.92;59.69;100834.38;5116843;28;8966;-62
2023/05/19 05:02:12;;;;;;;;;7.80;7.40;;;;;8.08;59.95;100831.78;5116633;28;8808;-62
2023/05/19 05:04:42;;;;;;;;;9.20;8.20;;;;;8.22;59.61;100832.72;5115826;28;8840;-61
2023/05/19 05:07:10;;;;;;;;;9.80;8.60;;;;;8.38;59.78;100828.28;5116152;28;8835;-61
2023/05/19 05:09:38;;;;;;;;;6.20;6.00;;;;;8.48;59.21;100829.50;5116202;28;8832;-60
2023/05/19 05:12:06;;;;;;;;;6.00;5.20;;;;;8.58;59.00;100824.53;5116547;28;9477;-61
2023/05/19 05:14:34;;;;;;;;;6.00;4.80;;;;;8.66;58.99;100825.78;5116080;28;8835;-60
2023/05/19 05:17:02;;;;;;;;;6.00;6.00;;;;;8.74;58.95;100825.34;5115851;28;8828;-60
2023/05/19 05:19:30;;;;;;;;;9.20;7.80;;;;;8.81;58.51;100827.53;5116273;28;8950;-61
2023/05/19 05:21:58;;;;;;;;;9.00;8.20;;;;;8.87;58.84;100827.19;5116136;28;8844;-60
2023/05/19 05:24:26;;;;;;;;;15.80;12.40;;;;;8.91;58.63;100828.72;5115808;28;8938;-61
2023/05/19 05:26:54;;;;;;;;;9.20;9.00;;;;;8.96;58.81;100831.13;5115561;28;8828;-61
2023/05/19 05:29:21;;;;;;;;;10.40;10.40;;;;;9.05;58.82;100835.88;5114440;28;8835;-59
2023/05/19 05:31:49;;;;;;;;;7.00;7.00;;;;;9.17;58.65;100835.13;5113918;28;8883;-61
2023/05/19 05:34:17;;;;;;;;;6.25;6.00;;;;;9.30;58.29;100826.34;5114202;28;8899;-59
2023/05/19 05:36:44;;;;;;;;;9.40;7.00;;;;;9.42;58.03;100827.41;5114169;28;8832;-61
2023/05/19 05:39:12;;;;;;;;;6.00;6.00;;;;;9.50;58.26;100828.63;5114773;28;8828;-60
2023/05/19 05:41:40;;;;;;;;;7.00;7.00;;;;;9.63;58.08;100834.09;5115130;28;8831;-60
2023/05/19 05:44:09;;;;;;;;;8.00;7.00;;;;;9.76;57.95;100830.56;5115104;28;8962;-60
2023/05/19 05:46:37;;;;;;;;;5.25;5.00;;;;;9.91;57.63;100832.25;5115874;28;8949;-62
2023/05/19 05:49:05;;;;;;;;;6.25;6.25;;;;;10.07;57.49;100830.38;5115605;28;8970;-60
2023/05/19 05:51:32;;;;;;;;;6.50;6.00;;;;;10.24;57.02;100818.66;5115796;28;9497;-62
2023/05/19 05:54:00;;;;;;;;;6.00;6.00;;;;;10.39;57.07;100815.00;5115122;28;8828;-61
2023/05/19 05:56:28;;;;;;;;;6.75;6.25;;;;;10.55;57.05;100815.72;5115549;28;8962;-62
2023/05/19 05:58:56;;;;;;;;;8.00;7.00;;;;;10.66;56.88;100818.53;5115165;28;8905;-62
2023/05/19 06:01:24;;;;;;;;;6.25;6.00;;;;;10.77;56.80;100818.69;5114575;28;8843;-60
2023/05/19 06:03:52;;;;;;;;;4.50;3.50;;;;;10.93;56.48;100808.69;5114609;28;8936;-61
2023/05/19 06:06:20;;;;;;;;;7.00;4.00;;;;;11.08;56.68;100819.16;5115643;28;8836;-60
2023/05/19 06:08:48;;;;;;;;;6.50;6.50;;;;;11.25;56.39;100813.56;5115258;28;8844;-61
2023/05/19 06:11:16;;;;;;;;;7.00;6.50;;;;;11.42;55.96;100810.59;5114829;28;8839;-61
2023/05/19 06:13:43;;;;;;;;;6.75;6.75;;;;;11.58;55.54;100805.91;5114940;28;9592;-57
2023/05/19 06:16:11;;;;;;;;;4.00;4.00;;;;;11.69;55.83;100806.00;5114905;28;8847;-59
2023/05/19 06:18:39;;;;;;;;;6.75;6.75;;;;;11.81;55.71;100806.94;5117564;28;8958;-57
2023/05/19 06:21:08;;;;;;;;;7.00;7.00;;;;;11.93;55.58;100802.47;5117511;28;9734;-57
2023/05/19 06:23:36;;;;;;;;;9.00;6.75;;;;;12.08;55.24;100804.03;5117825;28;8858;-58
2023/05/19 06:26:04;;;;;;;;;9.00;6.75;;;;;12.24;54.90;100801.13;5117926;28;8856;-59
2023/05/19 06:28:32;;;;;;;;;5.00;5.00;;;;;12.37;54.81;100801.91;5118388;28;8824;-58
2023/05/19 06:31:00;;;;;;;;;3.75;3.75;;;;;12.49;54.59;100803.69;5118861;28;8838;-59
2023/05/19 06:33:28;;;;;;;;;5.00;5.00;;;;;12.58;55.05;100795.84;5119377;28;8824;-57
2023/05/19 06:35:56;;;;;;;;;4.00;4.00;;;;;12.69;54.79;100789.72;5118717;28;8847;-59
2023/05/19 06:38:24;;;;;;;;;5.50;5.50;;;;;12.83;54.93;100793.03;5118335;28;8995;-58
2023/05/19 06:40:51;;;;;;;;;3.50;3.25;;;;;12.93;55.03;100793.22;5118457;28;9517;-58
2023/05/19 06:43:19;;;;;;;;;3.00;3.00;;;;;13.02;54.63;100790.72;5118654;28;9021;-59
2023/05/19 06:45:47;;;;;;;;;6.00;6.00;;;;;13.14;54.28;100789.78;5117271;28;8934;-57
2023/05/19 06:48:15;;;;;;;;;4.00;4.00;;;;;13.24;54.25;100792.59;5117254;28;8835;-57
2023/05/19 06:50:44;;;;;;;;;4.00;3.50;;;;;13.31;54.39;100788.50;5116773;28;8843;-60
2023/05/19 06:53:11;;;;;;;;;3.50;3.00;;;;;13.40;54.46;100790.44;5117285;28;8832;-59
2023/05/19 06:55:39;;;;;;;;;5.00;5.00;;;;;13.48;54.68;100790.69;5117701;28;8836;-57
2023/05/19 06:58:25;;;;;;;;;5.00;4.00;;;;;13.57;54.04;100785.47;5117956;28;8847;-59
2023/05/19 07:00:53;;;;;;;;;3.75;3.75;;;;;13.67;54.03;100791.81;5118217;28;8831;-58
2023/05/19 07:03:21;;;;;;;;;5.00;5.00;;;;;13.75;53.50;100792.06;5118878;28;8836;-59
2023/05/19 07:05:49;;;;;;;;;6.50;6.25;;;;;13.86;54.31;100789.41;5118578;28;8913;-59
2023/05/19 07:08:17;;;;;;;;;3.25;3.25;;;;;13.97;53.90;100791.22;5117922;28;9517;-59
2023/05/19 07:10:47;;;;;;;;;3.00;3.00;;;;;14.08;53.39;100788.50;5117563;28;8847;-59
2023/05/19 07:13:15;;;;;;;;;4.50;4.50;;;;;14.20;53.55;100784.91;5117100;28;8854;-60
2023/05/19 07:15:42;;;;;;;;;4.00;4.00;;;;;14.29;53.53;100785.00;5116283;28;8846;-59
2023/05/19 07:18:10;;;;;;;;;4.00;3.75;;;;;14.39;53.04;100783.28;5116109;28;8961;-59
2023/05/19 07:20:38;;;;;;;;;6.50;6.50;;;;;14.55;53.06;100780.16;5115723;28;8862;-56
2023/05/19 07:23:06;;;;;;;;;6.00;4.50;;;;;14.68;53.08;100767.44;5116341;28;8934;-60
2023/05/19 07:25:34;;;;;;;;;6.00;6.00;;;;;14.82;52.72;100767.16;5116015;28;8832;-58
2023/05/19 07:28:02;;;;;;;;;7.00;6.00;;;;;14.95;52.05;100765.16;5114935;28;8847;-59
2023/05/19 07:30:29;;;;;;;;;6.00;6.00;;;;;15.05;52.25;100771.44;5116116;28;8828;-57
2023/05/19 07:32:58;;;;;;;;;3.00;2.00;;;;;15.12;52.17;100764.56;5107772;28;8831;-58
2023/05/19 07:35:26;;;;;;;;;3.00;3.00;;;;;15.18;52.42;100764.06;5116988;28;8857;-57
2023/05/19 07:37:54;;;;;;;;;5.00;5.00;;;;;15.27;51.95;100768.63;5116731;28;8831;-59
2023/05/19 07:40:22;;;;;;;;;4.00;4.00;;;;;15.41;51.98;100768.31;5116510;28;8954;-57
2023/05/19 07:42:50;;;;;;;;;6.50;6.50;;;;;15.53;51.83;100765.41;5116614;28;8848;-59
2023/05/19 07:45:18;;;;;;;;;3.50;3.50;;;;;15.65;51.45;100755.44;5115087;28;8949;-58
2023/05/19 07:47:46;;;;;;;;;6.75;6.00;;;;;15.75;51.61;100759.88;5115939;28;8839;-58
2023/05/19 07:50:14;;;;;;;;;3.75;3.75;;;;;15.83;51.63;100759.19;5115605;28;8840;-59
2023/05/19 07:52:41;;;;;;;;;6.00;5.50;;;;;15.90;51.41;100755.84;5115780;28;8820;-60
2023/05/19 07:55:10;;;;;;;;;6.50;6.00;;;;;15.98;51.13;100752.47;5115975;28;8835;-59
2023/05/19 07:57:38;;;;;;;;;5.00;5.00;;;;;16.06;51.15;100756.19;5116081;28;8831;-59
2023/05/19 08:00:10;;;;;;;;;6.00;4.00;;;;;16.15;51.32;100752.66;5115875;28;8831;-60
2023/05/19 08:02:38;;;;;;;;;4.00;4.00;;;;;16.26;51.36;100750.69;5116523;28;8858;-58
2023/05/19 08:05:06;;;;;;;;;6.00;5.00;;;;;16.32;50.76;100744.78;5115784;28;9007;-59
2023/05/19 08:07:34;;;;;;;;;4.50;4.50;;;;;16.41;50.57;100746.66;5116377;28;8851;-58
2023/05/19 08:10:02;;;;;;;;;6.00;4.00;;;;;16.49;50.60;100743.28;5115925;28;8966;-57
2023/05/19 08:12:30;;;;;;;;;3.75;3.50;;;;;16.56;50.56;100747.97;5116656;28;8836;-60
2023/05/19 08:14:58;;;;;;;;;4.00;3.50;;;;;16.62;50.08;100750.09;5116539;28;8836;-57
2023/05/19 08:17:28;;;;;;;;;5.00;5.00;;;;;16.68;50.23;100736.09;5116179;28;8824;-57
2023/05/19 08:19:56;;;;;;;;;3.00;3.00;;;;;16.77;49.58;100737.91;5115523;28;8828;-59
2023/05/19 08:22:24;;;;;;;;;5.50;4.00;;;;;16.91;49.37;100740.19;5115831;28;8921;-59
2023/05/19 08:24:52;;;;;;;;;6.00;6.00;;;;;17.01;49.81;100740.19;5115720;28;8926;-60
2023/05/19 08:27:20;;;;;;;;;3.75;3.75;;;;;17.13;49.67;100737.19;5115019;28;9739;-58
2023/05/19 08:29:48;;;;;;;;;6.00;4.00;;;;;17.26;48.90;100732.34;5114187;28;8851;-58
2023/05/19 08:32:16;;;;;;;;;6.00;5.50;;;;;17.35;48.91;100728.78;5114972;28;8835;-59
2023/05/19 08:34:44;;;;;;;;;4.50;4.50;;;;;17.42;49.00;100727.25;5114446;28;8913;-58
2023/05/19 08:37:12;;;;;;;;;5.00;5.00;;;;;17.51;48.83;100725.50;5114205;28;8831;-59
2023/05/19 08:39:40;;;;;;;;;5.60;5.60;;;;;17.56;48.86;100721.38;5114019;28;9767;-60
2023/05/19 08:42:08;;;;;;;;;5.20;4.80;;;;;17.62;48.86;100715.38;5114888;28;8847;-57
2023/05/19 08:44:36;;;;;;;;;4.80;4.80;;;;;17.71;48.10;100711.81;5114030;28;8828;-59
2023/05/19 08:47:06;;;;;;;;;4.00;4.00;;;;;17.84;48.53;100704.22;5113671;28;8929;-58
2023/05/19 08:49:34;;;;;;;;;5.20;4.00;;;;;17.96;47.67;100708.44;5113450;28;8843;-59
2023/05/19 08:52:02;;;;;;;;;7.60;6.40;;;;;18.02;47.45;100706.97;5113234;28;8847;-59
2023/05/19 08:54:32;;;;;;;;;5.20;5.20;;;;;18.08;47.88;100691.03;5113459;28;8936;-58
2023/05/19 08:57:00;;;;;;;;;4.00;4.00;;;;;18.17;47.75;100690.16;5113024;28;9857;-57
2023/05/19 08:59:29;;;;;;;;;3.00;3.00;;;;;18.29;47.41;100683.50;5114129;28;8828;-60
2023/05/19 09:01:59;;;;;;;;;5.20;4.40;;;;;18.44;47.45;100684.72;5113815;28;9529;-60
2023/05/19 09:04:27;;;;;;;;;3.00;3.00;;;;;18.54;47.17;100680.09;5114041;28;8852;-58
2023/05/19 09:06:57;;;;;;;;;6.00;6.00;;;;;18.64;47.07;100671.91;5114528;28;8832;-60
2023/05/19 09:09:25;;;;;;;;;4.20;4.20;;;;;18.73;46.42;100687.19;5114735;28;8854;-59
2023/05/19 09:11:53;;;;;;;;;1.00;1.00;;;;;18.83;46.02;100682.53;5114396;28;8850;-58
2023/05/19 09:14:21;;;;;;;;;3.40;3.40;;;;;18.93;46.06;100684.16;5114528;28;9529;-58
2023/05/19 09:16:51;;;;;;;;;6.00;4.00;;;;;19.04;46.18;100681.19;5114398;28;8840;-60
2023/05/19 09:19:20;;;;;;;;;5.80;5.80;;;;;19.19;46.15;100676.94;5114849;28;8866;-60
2023/05/19 09:21:48;;;;;;;;;5.60;5.60;;;;;19.21;46.07;100674.91;5113607;28;8914;-60
2023/05/19 09:24:17;;;;;;;;;3.20;2.60;;;;;19.24;45.98;100673.75;5113684;28;9595;-60
2023/05/19 09:26:45;;;;;;;;;2.40;1.00;;;;;19.26;45.90;100679.88;5114066;28;8855;-60
2023/05/19 09:29:12;;;;;;;;;6.20;6.00;;;;;19.11;45.47;100673.31;5113785;28;8852;-57
2023/05/19 09:31:40;;;;;;;;;4.80;4.00;;;;;19.04;46.01;100675.78;5113913;28;8866;-59
2023/05/19 09:34:08;;;;;;;;;4.00;4.00;;;;;18.98;46.07;100665.59;5114710;28;8990;-60
2023/05/19 09:36:36;;;;;;;;;5.00;4.00;;;;;19.07;45.82;100659.28;5113575;28;8832;-58
2023/05/19 09:39:05;;;;;;;;;4.00;4.00;;;;;19.27;45.56;100660.78;5113532;28;8840;-57
2023/05/19 09:41:33;;;;;;;;;4.00;4.00;;;;;19.51;44.37;100651.97;5114133;28;8922;-59
2023/05/19 09:44:01;;;;;;;;;4.60;4.60;;;;;19.71;44.37;100659.66;5114247;28;8878;-58
2023/05/19 09:46:29;;;;;;;;;6.60;4.60;;;;;19.97;43.85;100641.53;5114237;28;8954;-59
2023/05/19 09:48:57;;;;;;;;;4.40;4.20;;;;;20.30;44.02;100646.00;5113032;28;8832;-59
2023/05/19 09:51:25;;;;;;;;;4.80;4.80;;;;;20.72;42.75;100649.44;5113362;28;8841;-59
2023/05/19 09:53:53;;;;;;;;;4.60;4.40;;;;;21.09;42.09;100645.19;5117592;28;8844;-58
2023/05/19 09:56:22;;;;;;;;;4.00;4.00;;;;;21.37;42.49;100648.34;5117066;28;8843;-58
2023/05/19 09:58:50;;;;;;;;;2.80;2.80;;;;;21.67;41.57;100644.88;5116114;28;8836;-60
2023/05/19 10:01:18;;;;;;;;;5.80;5.80;;;;;21.99;41.37;100640.16;5115618;28;8907;-57
2023/05/19 10:03:46;;;;;;;;;4.00;4.00;;;;;22.34;40.64;100633.31;5116220;28;8852;-59
2023/05/19 10:06:14;;;;;;;;;4.00;4.00;;;;;22.72;40.73;100637.81;5115713;28;8856;-59
2023/05/19 10:08:43;;;;;;;;;5.00;4.60;;;;;23.03;40.39;100630.38;5116591;28;8962;-58
2023/05/19 10:11:11;;;;;;;;;5.00;5.00;;;;;23.39;39.65;100636.84;5116131;28;8832;-60
2023/05/19 10:13:39;;;;;;;;;5.40;5.40;;;;;23.76;39.45;100631.28;5117516;28;8843;-58
2023/05/19 10:16:08;;;;;;;;;4.60;4.00;;;;;23.97;38.84;100625.94;5117024;28;8848;-58
2023/05/19 10:18:36;;;;;;;;;4.60;4.00;;;;;24.26;38.93;100621.25;5116759;28;8852;-60
2023/05/19 10:21:06;;;;;;;;;4.80;4.60;;;;;23.92;39.74;100621.09;5116903;28;8844;-58
2023/05/19 10:23:34;;;;;;;;;5.20;5.00;;;;;23.65;40.15;100626.31;5116338;28;8836;-58
2023/05/19 10:26:03;;;;;;;;;5.00;4.40;;;;;24.05;38.94;100628.56;5116443;28;8855;-59
2023/05/19 10:28:31;;;;;;;;;6.00;6.00;;;;;24.43;38.32;100621.84;5114144;28;8882;-59
2023/05/19 10:31:00;;;;;;;;;4.00;3.20;;;;;24.78;38.35;100623.69;5116185;28;9587;-60
2023/05/19 10:33:28;;;;;;;;;5.00;5.00;;;;;25.11;37.25;100622.06;5116419;28;8858;-58
2023/05/19 10:35:56;;;;;;;;;5.00;3.20;;;;;25.34;37.89;100623.50;5116977;28;8903;-58
2023/05/19 10:38:25;;;;;;;;;5.40;4.20;;;;;25.37;36.91;100620.41;5116164;28;8932;-59
2023/05/19 10:40:53;;;;;;;;;6.00;5.80;;;;;25.64;37.20;100631.25;5115883;28;8839;-58
2023/05/19 10:43:21;;;;;;;;;5.00;4.20;;;;;25.97;36.96;100615.91;5116412;28;8874;-58
2023/05/19 10:45:52;;;;;;;;;2.60;2.20;;;;;26.23;35.80;100621.47;5116540;28;8989;-58
2023/05/19 10:48:19;;;;;;;;;4.60;4.60;;;;;26.32;36.05;100614.75;5116214;28;8836;-58
2023/05/19 10:50:48;;;;;;;;;5.00;5.00;;;;;26.53;35.91;100611.03;5115754;28;8929;-58
2023/05/19 10:53:17;;;;;;;;;3.20;2.80;;;;;26.60;34.79;100610.00;5117208;28;8847;-59
2023/05/19 10:55:45;;;;;;;;;3.60;3.60;;;;;26.53;34.83;100609.16;5116859;28;8852;-58
2023/05/19 10:58:13;;;;;;;;;5.00;3.40;;;;;26.62;35.33;100604.31;5117239;28;8832;-59
2023/05/19 11:00:41;;;;;;;;;4.80;4.20;;;;;26.70;35.36;100599.50;5116297;28;8838;-59
2023/05/19 11:03:10;;;;;;;;;3.40;3.40;;;;;27.00;34.98;100602.63;5114908;28;8840;-58
2023/05/19 11:05:38;;;;;;;;;4.20;3.00;;;;;27.24;34.45;100594.63;5116575;28;8864;-58
2023/05/19 11:08:06;;;;;;;;;4.40;3.00;;;;;27.18;34.63;100589.19;5116638;28;8858;-59
2023/05/19 11:10:34;;;;;;;;;4.00;4.00;;;;;27.26;34.30;100598.03;5117367;28;8844;-59
2023/05/19 11:13:03;;;;;;;;;4.00;4.00;;;;;27.48;34.52;100593.13;5117003;28;8868;-59
2023/05/19 11:15:33;;;;;;;;;4.00;3.40;;;;;27.59;34.33;100593.28;5116822;28;8847;-58
2023/05/19 11:18:01;;;;;;;;;3.80;3.40;;;;;27.73;34.11;100597.66;5116161;28;8913;-59
2023/05/19 11:20:29;;;;;;;;;3.00;3.00;;;;;27.66;34.32;100596.00;5116642;28;8828;-60
2023/05/19 11:22:57;;;;;;;;;3.60;3.40;;;;;27.76;34.14;100589.03;5116372;28;8842;-60
2023/05/19 11:25:25;;;;;;;;;3.40;3.40;;;;;27.84;34.04;100596.19;5117097;28;8958;-60
2023/05/19 11:27:52;;;;;;;;;6.00;4.80;;;;;27.82;34.00;100587.31;5116951;28;8848;-59
2023/05/19 11:30:21;;;;;;;;;6.00;4.00;;;;;27.80;33.35;100594.94;5115958;28;8909;-59
2023/05/19 11:32:48;;;;;;;;;4.60;4.00;;;;;27.82;33.10;100592.81;5115921;28;8932;-58
2023/05/19 11:35:17;;;;;;;;;4.00;3.60;;;;;27.82;33.04;100593.66;5117240;28;8836;-59
2023/05/19 11:37:46;;;;;;;;;3.80;3.60;;;;;27.76;33.03;100583.56;5115159;28;8847;-60